LQSA/SJJ METAR and TAF weather

Enter ICAO airport designator
Station Type Date Time Source
LQSA METAR 2021/08/05 03:30 UTC NOAA

LQSA 050330Z 15015G29KT 120V180 CAVOK 27/11 Q1008


Station Type Date Time Source
LQSA Decoded METAR 2021/08/05 03:30 UTC NOAA

Sarajevo, Bosnia and Herzegovina (LQSA) 43-49N 018-20E 510M
Aug 04, 2021 - 11:30 PM EDT / 2021.08.05 0330 UTC
Wind: from the SSE (150 degrees) at 17 MPH (15 KT) gusting to 33 MPH (29 KT) (direction variable):0
Visibility: greater than 7 mile(s):0
Temperature: 80 F (27 C)
Dew Point: 51 F (11 C)
Relative Humidity: 36%
Pressure (altimeter): 29.77 in. Hg (1008 hPa)
ob: LQSA 050330Z 15015G29KT 120V180 CAVOK 27/11 Q1008
cycle: 3

Station Type Date Time Source
LQSA TAF 2021/08/05 03:00 UTC NOAA

TAF
AMD LQSA 050350Z 0503/0524 15014KT CAVOK TX28/0506Z TN15/0524Z
TEMPO 0503/0512 17015G30KT SHRA FEW030TCU BKN040 PROB40
TEMPO 0507/0513 20015G30KT 3000 TSRA SCT010 SCT030CB BKN035

Example: see airport list